Time;durP1;ratioP1;P1;durP2;ratioP2;P2;SDS_P1;SDS_P2;PMS_P1;PMS_P2;Temp;Humidity;BMP_temperature;BMP_pressure;BME280_temperature;BME280_humidity;BME280_pressure;Samples;Min_cycle;Max_cycle;Signal;HPM_P1;HPM_P2
2021/04/12 03:31:10;;;;;;;8.23;7.43;;;;;;;8.68;61.00;99201.41;8042471;23;20549;-85
2021/04/12 03:34:34;;;;;;;7.53;6.83;;;;;;;7.97;61.65;99204.53;6827854;29;20210;-84
2021/04/12 03:38:07;;;;;;;7.63;6.93;;;;;;;8.06;62.14;99178.44;6826851;29;20281;-83
2021/04/12 03:41:55;;;;;;;7.90;7.10;;;;;;;7.94;62.00;99171.81;6827853;29;20236;-83
2021/04/12 03:45:33;;;;;;;9.00;8.10;;;;;;;8.40;61.56;99195.81;6829239;29;20203;-83
2021/04/12 03:49:25;;;;;;;7.80;7.07;;;;;;;8.43;61.48;99200.00;6828565;29;20261;-83
2021/04/12 03:52:55;;;;;;;8.90;8.00;;;;;;;7.99;62.19;99197.13;6828648;29;20230;-83
2021/04/12 03:56:24;;;;;;;9.60;8.60;;;;;;;8.70;61.35;99223.56;6827803;29;20206;-83
2021/04/12 03:59:57;;;;;;;8.13;7.33;;;;;;;8.09;62.21;99235.31;6827434;29;20209;-83
2021/04/12 04:03:45;;;;;;;9.00;8.10;;;;;;;8.39;61.94;99238.97;6829718;29;20356;-82
2021/04/12 04:08:00;;;;;;;9.70;8.70;;;;;;;8.37;61.96;99217.66;6824007;29;20242;-83
2021/04/12 04:11:41;;;;;;;9.73;8.07;;;;;;;7.91;61.16;99159.59;6829590;29;20230;-82
2021/04/12 04:15:13;;;;;;;8.87;7.70;;;;;;;8.45;61.59;99257.91;6844405;29;20210;-83
2021/04/12 04:18:36;;;;;;;11.53;8.83;;;;;;;8.58;61.45;99241.16;6850999;28;20688;-82
2021/04/12 04:22:10;;;;;;;10.47;9.10;;;;;;;8.50;61.58;99270.78;6855592;28;20589;-83
2021/04/12 04:26:04;;;;;;;10.07;8.90;;;;;;;8.48;60.87;99262.91;6843555;28;20578;-83
2021/04/12 04:29:49;;;;;;;9.60;8.60;;;;;;;8.51;61.04;99264.38;6848781;28;20193;-82
2021/04/12 04:33:36;;;;;;;9.53;8.60;;;;;;;7.97;62.70;99255.56;6846292;28;20233;-83
2021/04/12 04:37:13;;;;;;;9.80;8.60;;;;;;;8.11;61.76;99262.81;6832661;28;20238;-83
2021/04/12 04:40:53;;;;;;;9.17;8.27;;;;;;;8.59;61.31;99296.56;6841261;29;20229;-83
2021/04/12 04:44:27;;;;;;;11.30;9.53;;;;;;;8.71;61.63;99298.66;6855298;28;20265;-83
2021/04/12 04:48:02;;;;;;;9.80;7.97;;;;;;;7.74;61.44;99303.00;6840177;28;20211;-81
2021/04/12 04:51:34;;;;;;;10.20;8.70;;;;;;;8.05;63.02;99319.94;6831531;29;20262;-81
2021/04/12 04:55:20;;;;;;;10.57;9.47;;;;;;;7.93;62.73;99290.97;6853197;29;20209;-81
2021/04/12 04:58:59;;;;;;;15.90;9.77;;;;;;;8.55;62.11;99335.59;6849713;28;20289;-84
2021/04/12 05:02:30;;;;;;;10.60;8.93;;;;;;;8.45;61.26;99326.91;6840343;29;20240;-81
2021/04/12 05:06:10;;;;;;;13.47;9.63;;;;;;;8.36;61.60;99339.56;6846428;29;20199;-81
2021/04/12 05:09:41;;;;;;;11.33;10.00;;;;;;;8.39;61.69;99347.28;6840768;29;20217;-81
2021/04/12 05:13:10;;;;;;;12.97;10.37;;;;;;;8.13;62.45;99344.03;6857723;28;20221;-81
2021/04/12 05:16:43;;;;;;;10.70;9.60;;;;;;;7.74;63.06;99356.66;6844069;28;20229;-81
2021/04/12 05:20:20;;;;;;;14.17;9.90;;;;;;;7.94;62.77;99368.66;6851829;29;20208;-81
2021/04/12 05:24:01;;;;;;;11.17;9.43;;;;;;;8.00;62.11;99351.84;6830704;29;20205;-81
2021/04/12 05:27:58;;;;;;;12.40;9.23;;;;;;;8.07;62.34;99362.72;6830340;29;20319;-81
2021/04/12 05:31:54;;;;;;;12.33;8.67;;;;;;;8.11;61.45;99381.00;6824463;29;20237;-85
2021/04/12 05:35:58;;;;;;;12.23;8.77;;;;;;;7.94;62.06;99357.91;6839172;28;20214;-86
2021/04/12 05:39:50;;;;;;;11.97;9.33;;;;;;;8.22;62.27;99404.81;6843753;28;20279;-84
2021/04/12 05:44:04;;;;;;;14.63;10.90;;;;;;;7.86;62.13;99398.22;6808961;29;20230;-83
2021/04/12 05:47:34;;;;;;;11.03;8.37;;;;;;;7.52;62.92;99368.13;6815938;29;20265;-88
2021/04/12 05:51:09;;;;;;;12.23;9.67;;;;;;;8.17;61.73;99382.97;6860445;29;20209;-86
2021/04/12 05:54:46;;;;;;;9.80;8.70;;;;;;;8.40;61.57;99431.41;6864223;28;20212;-85
2021/04/12 05:58:24;;;;;;;11.13;9.43;;;;;;;8.18;61.74;99427.63;6859116;28;20220;-84
2021/04/12 06:02:06;;;;;;;13.47;10.53;;;;;;;8.15;61.26;99384.16;6839182;28;20691;-82
2021/04/12 06:05:31;;;;;;;10.80;9.70;;;;;;;8.25;61.05;99415.19;6827167;29;20226;-80
2021/04/12 06:09:12;;;;;;;10.37;9.27;;;;;;;8.27;61.36;99456.16;6828342;29;20230;-83
2021/04/12 06:13:01;;;;;;;12.87;11.27;;;;;;;8.61;61.36;99440.50;6840604;29;20751;-81
2021/04/12 06:17:07;;;;;;;12.20;10.23;;;;;;;8.71;60.86;99453.75;6850752;28;20226;-81
2021/04/12 06:20:54;;;;;;;11.10;9.13;;;;;;;8.99;60.60;99456.53;6824348;29;20217;-82
2021/04/12 06:24:52;;;;;;;10.87;8.87;;;;;;;8.87;59.99;99473.28;6832334;29;21003;-82
2021/04/12 06:28:42;;;;;;;9.80;8.90;;;;;;;8.81;60.22;99486.59;6829312;29;20370;-82
2021/04/12 06:32:41;;;;;;;13.70;11.33;;;;;;;8.85;60.73;99483.38;6830218;29;20229;-81
2021/04/12 06:36:28;;;;;;;10.83;9.73;;;;;;;8.93;60.27;99502.97;6830623;29;20216;-81
2021/04/12 06:40:03;;;;;;;11.70;10.50;;;;;;;9.06;60.11;99507.78;6830638;29;20206;-81
2021/04/12 06:43:55;;;;;;;12.90;10.37;;;;;;;8.44;61.00;99502.59;6831193;29;20219;-82
2021/04/12 06:48:09;;;;;;;11.93;9.63;;;;;;;8.79;61.48;99520.91;6837719;29;20226;-81
2021/04/12 06:52:07;;;;;;;12.20;10.73;;;;;;;8.91;61.29;99524.88;6830562;29;20298;-81
2021/04/12 06:55:44;;;;;;;12.43;11.00;;;;;;;8.37;61.64;99509.69;6837479;29;20203;-82
2021/04/12 06:59:37;;;;;;;13.87;11.87;;;;;;;8.53;61.94;99534.63;6829405;29;20182;-80
2021/04/12 07:03:44;;;;;;;16.87;12.90;;;;;;;8.69;61.79;99536.41;6832314;28;20227;-81
2021/04/12 07:07:38;;;;;;;13.63;11.43;;;;;;;8.20;61.38;99540.28;6838474;29;20202;-81
2021/04/12 07:11:51;;;;;;;14.03;12.33;;;;;;;8.55;62.09;99548.72;6817681;28;20228;-82
2021/04/12 07:15:49;;;;;;;18.43;12.67;;;;;;;8.85;62.03;99552.47;6856122;28;20214;-81
2021/04/12 07:19:42;;;;;;;14.57;13.07;;;;;;;8.84;60.48;99548.91;6832534;28;20218;-82
2021/04/12 07:23:21;;;;;;;16.03;12.63;;;;;;;8.87;60.63;99553.13;6829172;29;20242;-81
2021/04/12 07:27:21;;;;;;;15.90;12.80;;;;;;;8.93;60.35;99562.16;6830331;29;20230;-82
2021/04/12 07:31:07;;;;;;;15.53;13.37;;;;;;;8.70;61.39;99562.25;6827375;29;20233;-81
2021/04/12 07:35:09;;;;;;;16.37;12.77;;;;;;;8.77;61.55;99574.03;6840100;28;20217;-82
2021/04/12 07:39:09;;;;;;;16.63;12.57;;;;;;;8.82;61.20;99567.09;6799378;28;20210;-81
2021/04/12 07:42:53;;;;;;;14.73;12.90;;;;;;;8.96;59.10;99560.13;6823875;29;20225;-79
2021/04/12 07:46:53;;;;;;;15.60;12.80;;;;;;;9.21;59.81;99576.78;6825885;28;20226;-81
2021/04/12 07:50:48;;;;;;;15.13;12.07;;;;;;;9.23;60.18;99588.22;6824464;29;20225;-82
2021/04/12 07:54:42;;;;;;;14.87;12.57;;;;;;;9.12;60.22;99590.47;6852245;29;20202;-83
2021/04/12 07:58:18;;;;;;;18.30;14.20;;;;;;;8.98;60.94;99606.50;6827594;29;20239;-82
2021/04/12 08:02:13;;;;;;;18.17;14.93;;;;;;;9.33;60.35;99604.97;6828841;29;20321;-81
2021/04/12 08:06:11;;;;;;;21.17;16.77;;;;;;;9.11;59.94;99618.38;6845705;29;20220;-81
2021/04/12 08:10:27;;;;;;;21.93;16.93;;;;;;;9.40;59.59;99605.91;6829949;29;20214;-82
2021/04/12 08:14:27;;;;;;;20.53;16.00;;;;;;;9.25;59.77;99613.09;6784004;28;20309;-82
2021/04/12 08:18:20;;;;;;;21.93;17.70;;;;;;;9.09;60.34;99617.72;6820882;28;20202;-81
2021/04/12 08:22:27;;;;;;;21.70;16.77;;;;;;;9.21;60.23;99622.53;6846456;28;20339;-81
2021/04/12 08:26:41;;;;;;;18.60;15.53;;;;;;;9.77;58.63;99619.47;6814250;28;20210;-82
2021/04/12 08:30:45;;;;;;;20.47;16.53;;;;;;;9.87;58.77;99643.47;6860518;28;20212;-81
2021/04/12 08:34:52;;;;;;;18.70;14.53;;;;;;;9.57;58.26;99630.91;6857502;28;20242;-82
2021/04/12 08:38:43;;;;;;;17.03;14.57;;;;;;;9.64;57.45;99638.06;6800839;28;20218;-82
2021/04/12 08:42:15;;;;;;;18.93;15.20;;;;;;;9.89;57.56;99603.69;6876142;28;20229;-82
2021/04/12 08:45:59;;;;;;;18.60;14.07;;;;;;;9.61;56.94;99634.88;6825158;29;20199;-80
2021/04/12 08:49:44;;;;;;;16.13;14.40;;;;;;;9.86;57.32;99633.72;6831208;28;20745;-82
2021/04/12 08:53:23;;;;;;;17.37;13.60;;;;;;;9.97;56.92;99635.94;6853349;28;20249;-81
2021/04/12 08:57:14;;;;;;;15.30;13.70;;;;;;;10.07;56.40;99645.50;6839980;28;20221;-82
2021/04/12 09:00:49;;;;;;;16.90;15.13;;;;;;;10.32;56.29;99641.56;6818318;28;20225;-82
2021/04/12 09:04:48;;;;;;;16.40;14.07;;;;;;;10.40;56.04;99640.66;6864121;28;20205;-82
2021/04/12 09:08:21;;;;;;;16.43;14.10;;;;;;;10.14;55.50;99618.66;6880629;28;20251;-81
2021/04/12 09:12:03;;;;;;;18.60;14.77;;;;;;;10.63;55.43;99617.97;6879769;28;20244;-82
2021/04/12 09:15:53;;;;;;;15.10;13.50;;;;;;;10.07;56.30;99666.22;6876202;28;20216;-82
2021/04/12 09:19:58;;;;;;;16.17;13.17;;;;;;;10.59;54.78;99657.16;6830298;28;20210;-82
2021/04/12 09:23:29;;;;;;;14.30;12.80;;;;;;;10.27;54.21;99678.19;6832289;28;20226;-82
2021/04/12 09:27:28;;;;;;;15.80;12.70;;;;;;;10.49;53.74;99664.66;6849885;28;20217;-81
2021/04/12 09:31:21;;;;;;;14.27;11.17;;;;;;;10.80;53.38;99651.03;6845466;28;20245;-81
2021/04/12 09:35:19;;;;;;;12.43;11.07;;;;;;;10.62;52.23;99640.56;6834602;28;20202;-82
2021/04/12 09:39:20;;;;;;;15.70;12.03;;;;;;;11.07;51.60;99678.19;6793382;28;20210;-80
2021/04/12 09:43:03;;;;;;;14.73;11.00;;;;;;;10.90;52.28;99660.50;6839229;28;20233;-82
2021/04/12 09:47:01;;;;;;;11.37;10.17;;;;;;;11.14;51.18;99683.63;6815662;28;20262;-82
2021/04/12 09:50:58;;;;;;;14.90;9.37;;;;;;;11.45;50.97;99687.78;6818715;28;20210;-86
2021/04/12 09:55:02;;;;;;;11.43;9.77;;;;;;;11.43;50.25;99691.69;6842346;28;20201;-82
2021/04/12 09:58:59;;;;;;;9.33;8.53;;;;;;;11.58;48.71;99676.31;6834549;28;20206;-82
2021/04/12 10:02:34;;;;;;;10.37;9.07;;;;;;;11.17;49.80;99685.97;6820068;29;20217;-82
2021/04/12 10:06:46;;;;;;;11.23;9.37;;;;;;;11.11;49.32;99698.34;6850151;28;20220;-84
2021/04/12 10:10:14;;;;;;;11.07;9.80;;;;;;;11.25;50.22;99702.06;6847767;29;20210;-85
2021/04/12 10:13:41;;;;;;;11.30;8.70;;;;;;;10.84;48.02;99688.22;6835638;28;20236;-85
2021/04/12 10:17:07;;;;;;;9.73;8.13;;;;;;;10.98;47.48;99710.84;6832223;29;20679;-82
2021/04/12 10:20:33;;;;;;;9.30;8.40;;;;;;;10.92;47.72;99708.88;6824888;29;20206;-84
2021/04/12 10:24:03;;;;;;;10.40;8.30;;;;;;;10.69;48.01;99670.34;6825152;29;20207;-84
2021/04/12 10:27:28;;;;;;;8.90;8.07;;;;;;;10.95;48.00;99703.94;6835670;29;20382;-85
2021/04/12 10:30:53;;;;;;;8.43;6.60;;;;;;;10.79;45.74;99670.91;6834316;29;20237;-83
2021/04/12 10:34:20;;;;;;;8.27;7.10;;;;;;;11.26;45.80;99715.38;6830703;29;20685;-83
2021/04/12 10:37:44;;;;;;;7.20;6.50;;;;;;;11.29;43.63;99700.69;6830756;29;20206;-83
2021/04/12 10:41:22;;;;;;;7.73;6.70;;;;;;;11.39;44.07;99710.16;6834977;28;20257;-83
2021/04/12 10:44:49;;;;;;;9.07;6.03;;;;;;;11.18;42.62;99612.91;6851840;29;20560;-83
2021/04/12 10:48:13;;;;;;;10.43;7.07;;;;;;;12.08;43.82;99716.78;6857540;28;20233;-83
2021/04/12 10:51:43;;;;;;;7.93;6.00;;;;;;;11.91;42.01;99715.34;6849681;28;20228;-85
2021/04/12 10:55:37;;;;;;;6.07;5.30;;;;;;;12.06;40.07;99721.56;6841954;29;20206;-85
2021/04/12 10:59:21;;;;;;;5.67;5.10;;;;;;;11.08;41.07;99669.03;6859199;28;20205;-83
2021/04/12 11:02:54;;;;;;;7.53;5.40;;;;;;;10.86;41.93;99712.31;6854527;28;20289;-84
2021/04/12 11:06:35;;;;;;;5.73;5.23;;;;;;;10.96;41.61;99711.03;6823919;29;20239;-83
2021/04/12 11:10:16;;;;;;;6.03;5.40;;;;;;;11.73;42.69;99713.09;6821053;29;20199;-83
2021/04/12 11:13:42;;;;;;;7.50;6.47;;;;;;;11.11;43.08;99716.41;6821450;29;20289;-82
2021/04/12 11:17:15;;;;;;;6.90;5.97;;;;;;;10.94;43.92;99683.41;6821674;29;20716;-83
2021/04/12 11:20:41;;;;;;;7.13;6.33;;;;;;;11.53;42.54;99692.25;6818847;29;20234;-86
2021/04/12 11:24:07;;;;;;;6.03;5.43;;;;;;;11.08;42.09;99714.94;6820331;29;20218;-81
2021/04/12 11:28:19;;;;;;;5.90;5.40;;;;;;;11.72;41.82;99715.97;6816896;29;20218;-83
2021/04/12 11:31:47;;;;;;;5.87;5.13;;;;;;;11.80;40.54;99721.28;6804730;29;20243;-82
2021/04/12 11:35:13;;;;;;;6.23;5.60;;;;;;;11.60;40.44;99717.50;6815623;29;20207;-83
2021/04/12 11:38:36;;;;;;;8.57;5.63;;;;;;;11.99;41.69;99715.25;6816427;29;20254;-82
2021/04/12 11:41:59;;;;;;;5.93;5.20;;;;;;;11.95;40.28;99708.56;6818823;29;20616;-84
2021/04/12 11:45:23;;;;;;;5.93;5.33;;;;;;;11.39;42.21;99706.63;6818006;29;20210;-83
2021/04/12 11:48:49;;;;;;;5.77;5.07;;;;;;;11.12;42.02;99729.72;6833258;29;20714;-83
2021/04/12 11:52:16;;;;;;;6.97;5.20;;;;;;;11.32;42.74;99714.63;6843567;28;20222;-83
2021/04/12 11:55:44;;;;;;;5.03;4.67;;;;;;;10.91;41.38;99736.84;6847362;28;20553;-83
2021/04/12 11:59:13;;;;;;;4.77;4.37;;;;;;;11.70;40.16;99705.38;6824683;28;20309;-85
2021/04/12 12:02:42;;;;;;;4.73;4.23;;;;;;;11.50;37.50;99731.28;6811708;29;20261;-84
2021/04/12 12:06:12;;;;;;;5.17;4.67;;;;;;;11.77;40.58;99724.38;6813078;29;20206;-85
2021/04/12 12:09:44;;;;;;;5.20;4.60;;;;;;;12.24;37.80;99736.31;6817941;28;20557;-84
2021/04/12 12:13:11;;;;;;;5.20;4.70;;;;;;;12.25;38.91;99731.75;6816871;29;20237;-82
2021/04/12 12:16:35;;;;;;;6.17;4.40;;;;;;;11.70;37.11;99743.19;6813832;29;20243;-83
2021/04/12 12:20:00;;;;;;;5.67;4.67;;;;;;;11.21;37.61;99735.88;6829635;29;20217;-84
2021/04/12 12:23:52;;;;;;;5.83;4.33;;;;;;;13.39;37.39;99736.59;6836406;28;20363;-81
2021/04/12 12:27:18;;;;;;;8.03;3.83;;;;;;;14.44;34.71;99743.22;6809479;28;20228;-84
2021/04/12 12:30:50;;;;;;;4.40;4.00;;;;;;;13.49;34.62;99714.56;6822952;28;20295;-82
2021/04/12 12:34:24;;;;;;;3.90;3.53;;;;;;;14.50;33.61;99734.25;6839387;29;20213;-83
2021/04/12 12:38:10;;;;;;;4.77;3.77;;;;;;;13.62;34.35;99745.25;6821051;28;20232;-81
2021/04/12 12:41:46;;;;;;;4.37;3.83;;;;;;;14.45;34.32;99731.34;6813171;29;20235;-81
2021/04/12 12:45:10;;;;;;;4.97;3.90;;;;;;;15.37;32.33;99722.94;6812924;29;20271;-81
2021/04/12 12:48:34;;;;;;;4.60;3.70;;;;;;;13.70;32.01;99739.66;6811624;29;20245;-79
2021/04/12 12:51:57;;;;;;;4.03;3.60;;;;;;;13.72;33.85;99739.47;6813839;29;20236;-80
2021/04/12 12:55:23;;;;;;;3.60;3.13;;;;;;;13.38;32.25;99750.34;6811621;29;20216;-79
2021/04/12 12:58:55;;;;;;;3.73;3.40;;;;;;;13.12;33.89;99750.19;6811070;29;20209;-80
2021/04/12 13:02:32;;;;;;;4.20;3.80;;;;;;;13.14;34.40;99751.66;6811894;29;20680;-81
2021/04/12 13:05:54;;;;;;;4.30;3.90;;;;;;;12.76;34.83;99750.28;6836011;29;20496;-80
2021/04/12 13:09:26;;;;;;;4.63;3.67;;;;;;;11.98;34.84;99743.31;6837983;28;20256;-80
2021/04/12 13:12:51;;;;;;;4.20;3.80;;;;;;;12.46;36.07;99731.75;6838686;28;20234;-81
2021/04/12 13:16:15;;;;;;;4.60;4.07;;;;;;;12.93;34.84;99729.22;6838459;28;20206;-81
2021/04/12 13:19:44;;;;;;;3.77;3.47;;;;;;;12.89;33.58;99738.75;6838999;28;20574;-81
2021/04/12 13:23:08;;;;;;;5.33;3.60;;;;;;;13.05;32.65;99723.06;6821884;28;20230;-80
2021/04/12 13:26:34;;;;;;;4.87;3.70;;;;;;;13.41;34.06;99744.53;6813541;29;20200;-80
2021/04/12 13:29:57;;;;;;;3.90;3.50;;;;;;;12.69;33.59;99749.41;6835703;28;20206;-81
2021/04/12 13:33:30;;;;;;;4.00;3.30;;;;;;;13.24;33.06;99738.63;6828940;28;20269;-81
2021/04/12 13:36:54;;;;;;;4.83;3.60;;;;;;;13.38;33.03;99739.50;6810350;29;20603;-80
2021/04/12 13:40:20;;;;;;;3.27;2.97;;;;;;;13.84;32.91;99735.97;6810290;29;20212;-80
2021/04/12 13:43:45;;;;;;;3.20;2.90;;;;;;;13.18;31.95;99733.16;6810201;29;20625;-80
2021/04/12 13:47:08;;;;;;;4.60;3.00;;;;;;;14.05;31.15;99743.13;6811307;29;20228;-81
2021/04/12 13:50:32;;;;;;;3.10;2.80;;;;;;;13.71;32.19;99719.66;6812237;29;20308;-81
2021/04/12 13:53:56;;;;;;;5.80;3.50;;;;;;;13.43;32.92;99735.16;6812163;29;20376;-80
2021/04/12 13:57:26;;;;;;;4.40;3.27;;;;;;;13.73;32.46;99735.72;6811688;29;20209;-80
2021/04/12 14:00:51;;;;;;;3.20;2.80;;;;;;;14.05;31.52;99732.28;6829722;29;20223;-80
2021/04/12 14:04:14;;;;;;;3.97;2.83;;;;;;;14.51;29.92;99720.47;6822849;29;20203;-79
2021/04/12 14:07:43;;;;;;;3.43;2.80;;;;;;;14.11;31.24;99728.75;6840219;28;20237;-79
2021/04/12 14:11:09;;;;;;;5.37;2.97;;;;;;;14.14;29.71;99703.91;6817308;28;20228;-80
2021/04/12 14:14:34;;;;;;;2.60;2.40;;;;;;;14.02;29.19;99722.69;6823012;29;20250;-80
2021/04/12 14:18:02;;;;;;;3.00;2.40;;;;;;;13.78;28.19;99727.81;6842404;28;20219;-80
2021/04/12 14:21:25;;;;;;;3.60;2.73;;;;;;;14.02;29.63;99725.41;6818230;29;20230;-80
2021/04/12 14:24:50;;;;;;;2.70;2.50;;;;;;;13.43;29.08;99731.63;6817031;29;20219;-80
2021/04/12 14:28:15;;;;;;;3.50;2.67;;;;;;;13.02;30.51;99744.28;6822465;29;20232;-81
2021/04/12 14:31:38;;;;;;;2.77;2.47;;;;;;;12.88;30.95;99737.94;6825684;28;20235;-80
2021/04/12 14:35:03;;;;;;;2.90;2.57;;;;;;;12.99;30.65;99723.84;6816613;29;20218;-81
2021/04/12 14:38:25;;;;;;;3.77;2.77;;;;;;;13.34;29.47;99700.31;6816463;29;20231;-80
2021/04/12 14:41:50;;;;;;;2.77;2.57;;;;;;;13.35;30.62;99729.94;6816206;29;20229;-80
2021/04/12 14:45:12;;;;;;;3.63;2.43;;;;;;;13.48;30.99;99751.66;6820859;29;20665;-80
2021/04/12 14:48:36;;;;;;;3.10;2.60;;;;;;;12.85;32.96;99753.69;6843388;28;20232;-80
2021/04/12 14:52:00;;;;;;;3.23;2.93;;;;;;;12.84;32.96;99765.56;6822482;28;20232;-78
2021/04/12 14:55:28;;;;;;;2.53;2.33;;;;;;;12.92;32.21;99774.38;6816118;29;20217;-80
2021/04/12 14:58:55;;;;;;;4.30;2.37;;;;;;;12.49;32.67;99769.19;6818594;29;20221;-80
2021/04/12 15:02:33;;;;;;;2.50;2.30;;;;;;;12.89;32.18;99766.66;6840265;29;20234;-81
2021/04/12 15:05:57;;;;;;;2.10;2.00;;;;;;;13.27;30.74;99769.88;6843458;28;20239;-80
2021/04/12 15:09:24;;;;;;;2.50;2.30;;;;;;;13.09;29.92;99764.97;6840115;28;20219;-80
2021/04/12 15:12:50;;;;;;;4.90;2.77;;;;;;;13.14;30.50;99767.91;6817527;29;20236;-81
2021/04/12 15:16:18;;;;;;;3.57;2.63;;;;;;;13.98;29.71;99767.50;6816375;29;20234;-80
2021/04/12 15:19:43;;;;;;;3.70;2.40;;;;;;;13.82;29.60;99751.63;6827065;29;20199;-82
2021/04/12 15:23:11;;;;;;;3.77;2.37;;;;;;;14.21;29.97;99753.66;6817922;29;20610;-81
2021/04/12 15:26:34;;;;;;;3.23;2.93;;;;;;;14.18;30.05;99754.00;6811935;29;20663;-78
2021/04/12 15:29:59;;;;;;;2.60;2.20;;;;;;;14.58;29.17;99740.31;6824499;29;20221;-78
2021/04/12 15:33:23;;;;;;;2.47;2.27;;;;;;;14.54;29.65;99749.94;6817249;29;20241;-78
2021/04/12 15:36:48;;;;;;;2.90;2.60;;;;;;;14.68;28.52;99737.22;6837078;29;20213;-78
2021/04/12 15:40:16;;;;;;;3.30;2.77;;;;;;;14.10;29.75;99748.78;6831905;28;20210;-79
2021/04/12 15:43:39;;;;;;;3.80;2.60;;;;;;;14.16;28.53;99742.53;6818483;29;20274;-79
2021/04/12 15:47:06;;;;;;;4.63;2.50;;;;;;;14.30;29.09;99757.81;6822173;29;20615;-78
2021/04/12 15:50:31;;;;;;;3.70;2.80;;;;;;;13.21;30.11;99744.41;6817451;29;20289;-78
2021/04/12 15:54:06;;;;;;;3.30;2.53;;;;;;;14.01;28.92;99750.84;6837235;28;20208;-78
2021/04/12 15:57:29;;;;;;;3.83;2.57;;;;;;;14.19;28.41;99755.72;6870054;28;20196;-79
2021/04/12 16:00:52;;;;;;;3.27;2.40;;;;;;;14.41;29.18;99759.94;6849495;28;20296;-78
2021/04/12 16:04:13;;;;;;;3.87;2.47;;;;;;;13.22;29.96;99758.81;6829042;29;20210;-78
2021/04/12 16:07:40;;;;;;;3.60;2.60;;;;;;;14.25;29.31;99772.00;6833220;28;20231;-78
2021/04/12 16:11:05;;;;;;;4.83;2.80;;;;;;;14.48;29.13;99749.91;6824192;29;20240;-78
2021/04/12 16:14:29;;;;;;;2.63;2.40;;;;;;;13.66;29.32;99762.81;6834026;29;20209;-78
2021/04/12 16:17:58;;;;;;;5.57;2.83;;;;;;;14.00;29.74;99772.72;6838531;28;20205;-79
2021/04/12 16:21:32;;;;;;;4.60;3.00;;;;;;;13.85;29.67;99748.50;6822626;28;20240;-78
2021/04/12 16:25:06;;;;;;;7.63;4.60;;;;;;;13.99;29.23;99763.75;6834600;28;20549;-78
2021/04/12 16:28:32;;;;;;;18.60;17.17;;;;;;;13.54;30.82;99759.00;6835641;28;20226;-78
2021/04/12 16:31:59;;;;;;;9.03;8.13;;;;;;;13.91;30.58;99765.81;6858668;28;20229;-78
2021/04/12 16:35:22;;;;;;;5.30;4.27;;;;;;;13.80;31.57;99782.69;6846083;28;20212;-78
2021/04/12 16:38:47;;;;;;;3.47;2.90;;;;;;;13.76;31.04;99776.78;6821689;28;20215;-78
2021/04/12 16:42:18;;;;;;;4.63;2.30;;;;;;;13.35;31.81;99785.97;6846295;28;20225;-80
2021/04/12 16:45:42;;;;;;;3.60;2.80;;;;;;;13.06;32.42;99791.59;6841129;28;20218;-80
2021/04/12 16:49:05;;;;;;;4.80;2.90;;;;;;;13.46;31.22;99796.25;6854510;28;20230;-80
2021/04/12 16:52:31;;;;;;;3.23;2.90;;;;;;;13.41;31.31;99783.31;6866521;28;20218;-80
2021/04/12 16:55:53;;;;;;;3.77;2.90;;;;;;;13.30;31.89;99797.41;6822964;28;20223;-80
2021/04/12 16:59:25;;;;;;;3.00;2.77;;;;;;;13.41;31.06;99796.00;6818602;29;20209;-80
2021/04/12 17:02:50;;;;;;;6.10;3.00;;;;;;;13.41;32.17;99786.00;6832016;28;20225;-78
2021/04/12 17:06:15;;;;;;;6.27;2.50;;;;;;;12.80;32.77;99799.47;6814425;28;20260;-78
2021/04/12 17:09:41;;;;;;;2.50;2.30;;;;;;;12.78;32.39;99798.81;6822965;28;20232;-78
2021/04/12 17:13:10;;;;;;;2.77;2.20;;;;;;;12.59;33.39;99794.91;6813669;29;20266;-79
2021/04/12 17:16:35;;;;;;;4.10;2.50;;;;;;;12.14;34.72;99813.34;6831491;29;20214;-79
2021/04/12 17:20:04;;;;;;;3.03;2.60;;;;;;;12.06;34.90;99811.63;6841222;28;20211;-78
2021/04/12 17:23:27;;;;;;;3.10;2.77;;;;;;;12.80;35.38;99794.06;6842060;28;20607;-79
2021/04/12 17:26:56;;;;;;;3.40;2.67;;;;;;;12.66;34.83;99808.50;6815745;28;20206;-80
2021/04/12 17:30:29;;;;;;;2.80;2.60;;;;;;;12.52;34.17;99810.22;6820830;28;20237;-79
2021/04/12 17:33:56;;;;;;;3.57;3.00;;;;;;;12.66;34.60;99813.91;6843362;28;20206;-79
2021/04/12 17:37:20;;;;;;;3.10;2.80;;;;;;;12.87;34.23;99822.03;6844376;28;20191;-79
2021/04/12 17:40:46;;;;;;;4.00;2.40;;;;;;;12.38;34.70;99811.13;6845945;28;20265;-79
2021/04/12 17:44:15;;;;;;;3.07;2.63;;;;;;;12.35;33.92;99819.66;6846665;28;20224;-81
2021/04/12 17:47:42;;;;;;;9.27;4.60;;;;;;;12.49;33.70;99813.34;6840835;29;20226;-81
2021/04/12 17:51:08;;;;;;;5.67;3.07;;;;;;;12.27;34.39;99791.88;6845297;28;20245;-81
2021/04/12 17:54:31;;;;;;;4.93;3.47;;;;;;;12.25;35.20;99834.47;6842160;28;20241;-81
2021/04/12 17:57:55;;;;;;;3.53;3.10;;;;;;;12.32;35.29;99829.97;6844904;28;20643;-81
2021/04/12 18:01:27;;;;;;;3.03;2.73;;;;;;;11.95;36.34;99828.31;6840344;28;20223;-81
2021/04/12 18:04:49;;;;;;;3.03;2.77;;;;;;;11.82;36.16;99824.59;6830896;28;20301;-81
2021/04/12 18:08:22;;;;;;;4.37;3.53;;;;;;;11.92;35.42;99839.50;6843805;28;20290;-81
2021/04/12 18:11:47;;;;;;;6.03;3.80;;;;;;;11.96;36.06;99843.50;6844704;28;20233;-81
2021/04/12 18:15:18;;;;;;;6.00;4.27;;;;;;;11.75;35.33;99827.22;6844243;28;20237;-81
2021/04/12 18:18:44;;;;;;;4.53;3.70;;;;;;;11.74;36.74;99849.84;6845581;28;20217;-81
2021/04/12 18:22:08;;;;;;;4.67;4.27;;;;;;;11.98;36.18;99864.94;6827491;28;20229;-81
2021/04/12 18:25:33;;;;;;;6.43;4.10;;;;;;;11.76;36.63;99846.97;6845003;28;20209;-81
2021/04/12 18:28:56;;;;;;;6.40;5.33;;;;;;;11.53;36.76;99857.00;6844638;28;20225;-81
2021/04/12 18:32:22;;;;;;;5.40;4.30;;;;;;;11.53;37.84;99875.91;6826363;28;20249;-81
2021/04/12 18:35:47;;;;;;;3.97;3.50;;;;;;;11.83;37.85;99877.63;6816732;29;20210;-81
2021/04/12 18:39:14;;;;;;;4.03;3.00;;;;;;;11.68;38.39;99876.81;6817015;29;20666;-81
2021/04/12 18:42:40;;;;;;;2.60;2.40;;;;;;;11.49;38.40;99871.88;6817218;29;20233;-80
2021/04/12 18:46:12;;;;;;;2.80;2.53;;;;;;;10.84;40.26;99887.00;6818138;29;20683;-81
2021/04/12 18:49:36;;;;;;;4.60;3.30;;;;;;;10.06;41.45;99880.94;6820596;29;20234;-83
2021/04/12 18:53:04;;;;;;;5.53;3.90;;;;;;;10.35;40.96;99875.75;6823548;29;20281;-84
2021/04/12 18:56:34;;;;;;;6.33;4.20;;;;;;;9.97;42.38;99886.50;6836636;28;20257;-84
2021/04/12 19:00:23;;;;;;;6.07;4.30;;;;;;;10.21;42.22;99916.06;6820503;29;20240;-83
2021/04/12 19:03:52;;;;;;;4.97;4.30;;;;;;;9.95;42.24;99866.97;6830092;29;20582;-84
2021/04/12 19:07:27;;;;;;;5.90;5.27;;;;;;;10.12;42.62;99907.19;6848744;28;20229;-85
2021/04/12 19:10:51;;;;;;;7.17;4.70;;;;;;;10.02;43.34;99905.66;6846168;29;20229;-85
2021/04/12 19:14:35;;;;;;;4.73;4.03;;;;;;;10.12;43.84;99923.34;6831473;28;20197;-85
2021/04/12 19:18:11;;;;;;;8.77;4.20;;;;;;;9.96;44.56;99926.06;6821328;29;20214;-85
2021/04/12 19:22:02;;;;;;;4.13;3.73;;;;;;;9.55;45.75;99926.34;6819487;29;20242;-85
2021/04/12 19:25:29;;;;;;;5.50;3.80;;;;;;;9.51;45.65;99884.66;6823348;29;20216;-85
2021/04/12 19:29:08;;;;;;;5.17;3.63;;;;;;;9.53;45.73;99933.78;6854146;28;20221;-85
2021/04/12 19:32:38;;;;;;;5.77;3.87;;;;;;;9.18;45.34;99861.50;6843316;28;20233;-85
2021/04/12 19:36:05;;;;;;;4.67;3.60;;;;;;;9.31;45.98;99913.78;6839634;28;20203;-85
2021/04/12 19:39:34;;;;;;;13.17;8.20;;;;;;;9.33;46.04;99913.63;6843751;29;20206;-85
2021/04/12 19:42:59;;;;;;;4.30;3.90;;;;;;;8.50;47.87;99905.03;6824705;28;20224;-85
2021/04/12 19:46:21;;;;;;;4.47;4.03;;;;;;;8.69;48.38;99934.28;6829566;28;20202;-86
2021/04/12 19:49:47;;;;;;;5.57;3.30;;;;;;;8.46;46.79;99826.56;6822645;29;20311;-86
2021/04/12 19:53:37;;;;;;;3.43;3.13;;;;;;;8.69;46.58;99878.69;6847931;28;20276;-86
2021/04/12 19:57:44;;;;;;;3.33;2.70;;;;;;;8.88;46.82;99936.66;6848953;28;20213;-85
2021/04/12 20:01:24;;;;;;;5.27;2.97;;;;;;;8.88;46.99;99931.28;6841323;28;20266;-85
2021/04/12 20:05:11;;;;;;;5.27;3.40;;;;;;;8.52;48.51;99951.38;6849958;28;20220;-84
2021/04/12 20:09:05;;;;;;;3.27;2.97;;;;;;;8.68;48.33;99940.66;6851012;28;20292;-87
2021/04/12 20:29:58;;;;;;;3.13;2.83;;;;;;;8.12;49.34;99949.38;6553077;30;20232;-88
2021/04/12 20:33:40;;;;;;;3.23;3.00;;;;;;;7.93;50.02;99941.56;6656464;29;20239;-84
2021/04/12 20:38:08;;;;;;;3.13;2.93;;;;;;;8.14;49.50;99943.84;6710264;29;20243;-83
2021/04/12 20:41:48;;;;;;;3.97;3.57;;;;;;;7.66;50.85;99944.44;6696865;29;20233;-85